sensor_id;sensor_type;location;lat;lon;timestamp;temperature;humidity
17619;DHT22;8928;51.678;6.074;2023-04-29T00:00:46;9.90;99.90
17619;DHT22;8928;51.678;6.074;2023-04-29T00:03:33;9.80;99.90
17619;DHT22;8928;51.678;6.074;2023-04-29T00:06:20;9.80;99.90
17619;DHT22;8928;51.678;6.074;2023-04-29T00:09:08;9.80;99.90
17619;DHT22;8928;51.678;6.074;2023-04-29T00:11:55;9.80;99.90
17619;DHT22;8928;51.678;6.074;2023-04-29T00:14:42;9.80;99.90
17619;DHT22;8928;51.678;6.074;2023-04-29T00:17:30;9.80;99.90
17619;DHT22;8928;51.678;6.074;2023-04-29T00:20:17;9.80;99.90
17619;DHT22;8928;51.678;6.074;2023-04-29T00:23:04;9.70;99.90
17619;DHT22;8928;51.678;6.074;2023-04-29T00:25:52;9.80;99.90
17619;DHT22;8928;51.678;6.074;2023-04-29T00:28:39;9.70;99.90
17619;DHT22;8928;51.678;6.074;2023-04-29T00:31:26;9.70;99.90
17619;DHT22;8928;51.678;6.074;2023-04-29T00:34:15;9.70;99.90
17619;DHT22;8928;51.678;6.074;2023-04-29T00:37:02;9.70;99.90
17619;DHT22;8928;51.678;6.074;2023-04-29T00:39:49;9.70;99.90
17619;DHT22;8928;51.678;6.074;2023-04-29T00:42:36;9.70;99.90
17619;DHT22;8928;51.678;6.074;2023-04-29T00:45:23;9.70;99.90
17619;DHT22;8928;51.678;6.074;2023-04-29T00:48:12;9.60;99.90
17619;DHT22;8928;51.678;6.074;2023-04-29T00:51:02;9.60;99.90
17619;DHT22;8928;51.678;6.074;2023-04-29T00:53:50;9.60;99.90
17619;DHT22;8928;51.678;6.074;2023-04-29T00:56:38;9.60;99.90
17619;DHT22;8928;51.678;6.074;2023-04-29T00:59:27;9.50;99.90
17619;DHT22;8928;51.678;6.074;2023-04-29T01:02:18;9.50;99.90
17619;DHT22;8928;51.678;6.074;2023-04-29T01:05:05;9.50;99.90
17619;DHT22;8928;51.678;6.074;2023-04-29T01:08:03;9.50;99.90
17619;DHT22;8928;51.678;6.074;2023-04-29T01:10:54;9.50;99.90
17619;DHT22;8928;51.678;6.074;2023-04-29T01:13:49;9.40;99.90
17619;DHT22;8928;51.678;6.074;2023-04-29T01:16:39;9.40;99.90
17619;DHT22;8928;51.678;6.074;2023-04-29T01:19:38;9.40;99.90
17619;DHT22;8928;51.678;6.074;2023-04-29T01:22:26;9.40;99.90
17619;DHT22;8928;51.678;6.074;2023-04-29T01:25:15;9.40;99.90
17619;DHT22;8928;51.678;6.074;2023-04-29T01:28:08;9.40;99.90
17619;DHT22;8928;51.678;6.074;2023-04-29T01:31:04;9.40;99.90
17619;DHT22;8928;51.678;6.074;2023-04-29T01:34:02;9.30;99.90
17619;DHT22;8928;51.678;6.074;2023-04-29T01:36:58;9.40;99.90
17619;DHT22;8928;51.678;6.074;2023-04-29T01:39:56;9.30;99.90
17619;DHT22;8928;51.678;6.074;2023-04-29T01:42:54;9.40;99.90
17619;DHT22;8928;51.678;6.074;2023-04-29T01:45:45;9.30;99.90
17619;DHT22;8928;51.678;6.074;2023-04-29T01:48:32;9.30;99.90
17619;DHT22;8928;51.678;6.074;2023-04-29T01:51:19;9.30;99.90
17619;DHT22;8928;51.678;6.074;2023-04-29T01:54:06;9.30;99.90
17619;DHT22;8928;51.678;6.074;2023-04-29T01:56:53;9.30;99.90
17619;DHT22;8928;51.678;6.074;2023-04-29T01:59:42;9.30;99.90
17619;DHT22;8928;51.678;6.074;2023-04-29T02:02:29;9.20;99.90
17619;DHT22;8928;51.678;6.074;2023-04-29T02:05:16;9.20;99.90
17619;DHT22;8928;51.678;6.074;2023-04-29T02:08:03;9.30;99.90
17619;DHT22;8928;51.678;6.074;2023-04-29T02:10:53;9.20;99.90
17619;DHT22;8928;51.678;6.074;2023-04-29T02:13:40;9.20;99.90
17619;DHT22;8928;51.678;6.074;2023-04-29T02:16:28;9.20;99.90
17619;DHT22;8928;51.678;6.074;2023-04-29T02:19:15;9.20;99.90
17619;DHT22;8928;51.678;6.074;2023-04-29T02:22:02;9.20;99.90
17619;DHT22;8928;51.678;6.074;2023-04-29T02:24:49;9.20;99.90
17619;DHT22;8928;51.678;6.074;2023-04-29T02:27:36;9.20;99.90
17619;DHT22;8928;51.678;6.074;2023-04-29T02:30:24;9.20;99.90
17619;DHT22;8928;51.678;6.074;2023-04-29T02:33:12;9.20;99.90
17619;DHT22;8928;51.678;6.074;2023-04-29T02:35:59;9.20;99.90
17619;DHT22;8928;51.678;6.074;2023-04-29T02:38:46;9.20;99.90
17619;DHT22;8928;51.678;6.074;2023-04-29T02:41:35;9.20;99.90
17619;DHT22;8928;51.678;6.074;2023-04-29T02:44:22;9.20;99.90
17619;DHT22;8928;51.678;6.074;2023-04-29T02:47:09;9.20;99.90
17619;DHT22;8928;51.678;6.074;2023-04-29T02:49:58;9.20;99.90
17619;DHT22;8928;51.678;6.074;2023-04-29T02:52:45;9.20;99.90
17619;DHT22;8928;51.678;6.074;2023-04-29T02:55:32;9.20;99.90
17619;DHT22;8928;51.678;6.074;2023-04-29T02:58:19;9.20;99.90
17619;DHT22;8928;51.678;6.074;2023-04-29T03:01:07;9.20;99.90
17619;DHT22;8928;51.678;6.074;2023-04-29T03:03:54;9.20;99.90
17619;DHT22;8928;51.678;6.074;2023-04-29T03:06:42;9.20;99.90
17619;DHT22;8928;51.678;6.074;2023-04-29T03:09:29;9.20;99.90
17619;DHT22;8928;51.678;6.074;2023-04-29T03:12:16;9.20;99.90
17619;DHT22;8928;51.678;6.074;2023-04-29T03:15:04;9.20;99.90
17619;DHT22;8928;51.678;6.074;2023-04-29T03:17:51;9.20;99.90
17619;DHT22;8928;51.678;6.074;2023-04-29T03:20:38;9.20;99.90
17619;DHT22;8928;51.678;6.074;2023-04-29T03:23:27;9.20;99.90
17619;DHT22;8928;51.678;6.074;2023-04-29T03:26:14;9.20;99.90
17619;DHT22;8928;51.678;6.074;2023-04-29T03:29:01;9.20;99.90
17619;DHT22;8928;51.678;6.074;2023-04-29T03:31:48;9.20;99.90
17619;DHT22;8928;51.678;6.074;2023-04-29T03:34:36;9.20;99.90
17619;DHT22;8928;51.678;6.074;2023-04-29T03:37:23;9.20;99.90
17619;DHT22;8928;51.678;6.074;2023-04-29T03:40:12;9.20;99.90
17619;DHT22;8928;51.678;6.074;2023-04-29T03:42:59;9.20;99.90
17619;DHT22;8928;51.678;6.074;2023-04-29T03:45:46;9.20;99.90
17619;DHT22;8928;51.678;6.074;2023-04-29T03:48:33;9.20;99.90
17619;DHT22;8928;51.678;6.074;2023-04-29T03:51:21;9.20;99.90
17619;DHT22;8928;51.678;6.074;2023-04-29T03:54:09;9.10;99.90
17619;DHT22;8928;51.678;6.074;2023-04-29T03:56:57;9.20;99.90
17619;DHT22;8928;51.678;6.074;2023-04-29T03:59:45;9.20;99.90
17619;DHT22;8928;51.678;6.074;2023-04-29T04:02:34;9.20;99.90
17619;DHT22;8928;51.678;6.074;2023-04-29T04:05:22;9.20;99.90
17619;DHT22;8928;51.678;6.074;2023-04-29T04:08:10;9.20;99.90
17619;DHT22;8928;51.678;6.074;2023-04-29T04:10:57;9.20;99.90
17619;DHT22;8928;51.678;6.074;2023-04-29T04:13:49;9.20;99.90
17619;DHT22;8928;51.678;6.074;2023-04-29T04:16:36;9.20;99.90
17619;DHT22;8928;51.678;6.074;2023-04-29T04:19:23;9.20;99.90
17619;DHT22;8928;51.678;6.074;2023-04-29T04:22:11;9.20;99.90
17619;DHT22;8928;51.678;6.074;2023-04-29T04:24:58;9.20;99.90
17619;DHT22;8928;51.678;6.074;2023-04-29T04:27:45;9.20;99.90
17619;DHT22;8928;51.678;6.074;2023-04-29T04:30:35;9.10;99.90
17619;DHT22;8928;51.678;6.074;2023-04-29T04:33:23;9.20;99.90
17619;DHT22;8928;51.678;6.074;2023-04-29T04:36:10;9.20;99.90
17619;DHT22;8928;51.678;6.074;2023-04-29T04:38:57;9.10;99.90
17619;DHT22;8928;51.678;6.074;2023-04-29T04:41:44;9.20;99.90
17619;DHT22;8928;51.678;6.074;2023-04-29T04:44:31;9.20;99.90
17619;DHT22;8928;51.678;6.074;2023-04-29T04:47:20;9.20;99.90
17619;DHT22;8928;51.678;6.074;2023-04-29T04:50:07;9.20;99.90
17619;DHT22;8928;51.678;6.074;2023-04-29T04:52:55;9.20;99.90
17619;DHT22;8928;51.678;6.074;2023-04-29T04:55:42;9.20;99.90
17619;DHT22;8928;51.678;6.074;2023-04-29T04:58:29;9.20;99.90
17619;DHT22;8928;51.678;6.074;2023-04-29T05:01:17;9.20;99.90
17619;DHT22;8928;51.678;6.074;2023-04-29T05:04:05;9.20;99.90
17619;DHT22;8928;51.678;6.074;2023-04-29T05:06:52;9.20;99.90
17619;DHT22;8928;51.678;6.074;2023-04-29T05:09:39;9.20;99.90
17619;DHT22;8928;51.678;6.074;2023-04-29T05:12:26;9.20;99.90
17619;DHT22;8928;51.678;6.074;2023-04-29T05:15:15;9.20;99.90
17619;DHT22;8928;51.678;6.074;2023-04-29T05:18:03;9.30;99.90
17619;DHT22;8928;51.678;6.074;2023-04-29T05:20:52;9.20;99.90
17619;DHT22;8928;51.678;6.074;2023-04-29T05:23:39;9.20;99.90
17619;DHT22;8928;51.678;6.074;2023-04-29T05:26:26;9.20;99.90
17619;DHT22;8928;51.678;6.074;2023-04-29T05:29:13;9.30;99.90
17619;DHT22;8928;51.678;6.074;2023-04-29T05:32:00;9.30;99.90
17619;DHT22;8928;51.678;6.074;2023-04-29T05:34:47;9.20;99.90
17619;DHT22;8928;51.678;6.074;2023-04-29T05:37:36;9.20;99.90
17619;DHT22;8928;51.678;6.074;2023-04-29T05:40:23;9.30;99.90
17619;DHT22;8928;51.678;6.074;2023-04-29T05:43:10;9.30;99.90
17619;DHT22;8928;51.678;6.074;2023-04-29T05:45:57;9.30;99.90
17619;DHT22;8928;51.678;6.074;2023-04-29T05:48:44;9.30;99.90
17619;DHT22;8928;51.678;6.074;2023-04-29T05:51:31;9.30;99.90
17619;DHT22;8928;51.678;6.074;2023-04-29T05:54:20;9.40;99.90
17619;DHT22;8928;51.678;6.074;2023-04-29T05:57:07;9.40;99.90
17619;DHT22;8928;51.678;6.074;2023-04-29T05:59:54;9.40;99.90
17619;DHT22;8928;51.678;6.074;2023-04-29T06:02:41;9.40;99.90
17619;DHT22;8928;51.678;6.074;2023-04-29T06:05:30;9.50;99.90
17619;DHT22;8928;51.678;6.074;2023-04-29T06:08:19;9.50;99.90
17619;DHT22;8928;51.678;6.074;2023-04-29T06:11:07;9.50;99.90
17619;DHT22;8928;51.678;6.074;2023-04-29T06:13:54;9.50;99.90
17619;DHT22;8928;51.678;6.074;2023-04-29T06:16:42;9.50;99.90
17619;DHT22;8928;51.678;6.074;2023-04-29T06:19:29;9.50;99.90
17619;DHT22;8928;51.678;6.074;2023-04-29T06:22:17;9.50;99.90
17619;DHT22;8928;51.678;6.074;2023-04-29T06:25:04;9.60;99.90
17619;DHT22;8928;51.678;6.074;2023-04-29T06:27:53;9.70;99.90
17619;DHT22;8928;51.678;6.074;2023-04-29T06:30:40;9.80;99.90
17619;DHT22;8928;51.678;6.074;2023-04-29T06:33:27;9.80;99.90
17619;DHT22;8928;51.678;6.074;2023-04-29T06:36:15;9.90;99.90
17619;DHT22;8928;51.678;6.074;2023-04-29T06:39:02;10.00;99.90
17619;DHT22;8928;51.678;6.074;2023-04-29T06:41:49;10.10;99.90
17619;DHT22;8928;51.678;6.074;2023-04-29T06:44:38;10.20;99.90
17619;DHT22;8928;51.678;6.074;2023-04-29T06:47:25;10.30;99.90
17619;DHT22;8928;51.678;6.074;2023-04-29T06:50:12;10.50;99.90
17619;DHT22;8928;51.678;6.074;2023-04-29T06:52:59;10.60;99.90
17619;DHT22;8928;51.678;6.074;2023-04-29T06:55:47;10.70;99.90
17619;DHT22;8928;51.678;6.074;2023-04-29T06:58:34;10.90;99.90
17619;DHT22;8928;51.678;6.074;2023-04-29T07:01:22;11.00;99.90
17619;DHT22;8928;51.678;6.074;2023-04-29T07:04:09;11.10;99.90
17619;DHT22;8928;51.678;6.074;2023-04-29T07:06:57;11.10;99.90
17619;DHT22;8928;51.678;6.074;2023-04-29T07:09:44;11.10;99.90
17619;DHT22;8928;51.678;6.074;2023-04-29T07:12:31;11.00;99.90
17619;DHT22;8928;51.678;6.074;2023-04-29T07:15:18;11.00;99.90
17619;DHT22;8928;51.678;6.074;2023-04-29T07:18:07;11.10;99.90
17619;DHT22;8928;51.678;6.074;2023-04-29T07:20:54;11.10;99.90
17619;DHT22;8928;51.678;6.074;2023-04-29T07:23:41;11.10;99.90
17619;DHT22;8928;51.678;6.074;2023-04-29T07:26:28;11.20;99.90
17619;DHT22;8928;51.678;6.074;2023-04-29T07:29:15;11.30;99.90
17619;DHT22;8928;51.678;6.074;2023-04-29T07:32:02;11.30;99.90
17619;DHT22;8928;51.678;6.074;2023-04-29T07:34:50;11.40;99.90
17619;DHT22;8928;51.678;6.074;2023-04-29T07:37:38;11.40;99.90
17619;DHT22;8928;51.678;6.074;2023-04-29T07:40:26;11.50;99.90
17619;DHT22;8928;51.678;6.074;2023-04-29T07:43:13;11.40;99.90
17619;DHT22;8928;51.678;6.074;2023-04-29T07:46:00;11.50;99.90
17619;DHT22;8928;51.678;6.074;2023-04-29T07:48:47;11.70;99.90
17619;DHT22;8928;51.678;6.074;2023-04-29T07:51:35;11.70;99.90
17619;DHT22;8928;51.678;6.074;2023-04-29T07:54:22;11.80;99.90
17619;DHT22;8928;51.678;6.074;2023-04-29T07:57:10;11.90;99.90
17619;DHT22;8928;51.678;6.074;2023-04-29T07:59:57;11.90;99.90
17619;DHT22;8928;51.678;6.074;2023-04-29T08:02:44;11.80;99.90
17619;DHT22;8928;51.678;6.074;2023-04-29T08:05:31;11.80;99.90
17619;DHT22;8928;51.678;6.074;2023-04-29T08:08:19;11.90;99.90
17619;DHT22;8928;51.678;6.074;2023-04-29T08:11:06;11.80;99.90
17619;DHT22;8928;51.678;6.074;2023-04-29T08:13:53;12.10;99.90
17619;DHT22;8928;51.678;6.074;2023-04-29T08:16:42;12.20;99.90
17619;DHT22;8928;51.678;6.074;2023-04-29T08:19:29;12.20;99.90
17619;DHT22;8928;51.678;6.074;2023-04-29T08:22:16;12.30;99.90
17619;DHT22;8928;51.678;6.074;2023-04-29T08:25:06;12.40;99.90
17619;DHT22;8928;51.678;6.074;2023-04-29T08:27:53;12.60;99.90
17619;DHT22;8928;51.678;6.074;2023-04-29T08:30:40;13.00;99.90
17619;DHT22;8928;51.678;6.074;2023-04-29T08:33:27;13.10;99.90
17619;DHT22;8928;51.678;6.074;2023-04-29T08:36:15;13.40;99.90
17619;DHT22;8928;51.678;6.074;2023-04-29T08:39:02;13.40;99.90
17619;DHT22;8928;51.678;6.074;2023-04-29T08:41:50;13.40;99.90
17619;DHT22;8928;51.678;6.074;2023-04-29T08:44:39;13.60;99.90
17619;DHT22;8928;51.678;6.074;2023-04-29T08:47:28;14.00;99.90
17619;DHT22;8928;51.678;6.074;2023-04-29T08:50:16;14.10;99.90
17619;DHT22;8928;51.678;6.074;2023-04-29T08:53:03;14.30;99.90
17619;DHT22;8928;51.678;6.074;2023-04-29T08:55:51;14.40;99.90
17619;DHT22;8928;51.678;6.074;2023-04-29T08:58:42;14.50;99.90
17619;DHT22;8928;51.678;6.074;2023-04-29T09:01:29;14.50;99.90
17619;DHT22;8928;51.678;6.074;2023-04-29T09:04:27;14.50;99.90
17619;DHT22;8928;51.678;6.074;2023-04-29T09:07:16;14.80;99.90
17619;DHT22;8928;51.678;6.074;2023-04-29T09:10:04;14.90;99.90
17619;DHT22;8928;51.678;6.074;2023-04-29T09:12:55;14.90;99.90
17619;DHT22;8928;51.678;6.074;2023-04-29T09:15:43;14.70;99.90
17619;DHT22;8928;51.678;6.074;2023-04-29T09:18:41;14.50;99.90
17619;DHT22;8928;51.678;6.074;2023-04-29T09:21:29;14.40;99.90
17619;DHT22;8928;51.678;6.074;2023-04-29T09:24:24;14.70;99.90
17619;DHT22;8928;51.678;6.074;2023-04-29T09:27:25;14.70;99.90
17619;DHT22;8928;51.678;6.074;2023-04-29T09:30:12;14.80;99.90
17619;DHT22;8928;51.678;6.074;2023-04-29T09:33:08;14.80;99.90
17619;DHT22;8928;51.678;6.074;2023-04-29T09:35:55;14.70;99.90
17619;DHT22;8928;51.678;6.074;2023-04-29T09:38:52;14.70;99.90
17619;DHT22;8928;51.678;6.074;2023-04-29T09:41:42;14.90;99.90
17619;DHT22;8928;51.678;6.074;2023-04-29T09:44:42;14.90;99.90
17619;DHT22;8928;51.678;6.074;2023-04-29T09:47:29;15.00;99.90
17619;DHT22;8928;51.678;6.074;2023-04-29T09:50:19;15.40;99.90
17619;DHT22;8928;51.678;6.074;2023-04-29T09:53:07;15.80;99.90
17619;DHT22;8928;51.678;6.074;2023-04-29T09:55:57;16.10;99.90
17619;DHT22;8928;51.678;6.074;2023-04-29T09:58:44;15.90;99.90
17619;DHT22;8928;51.678;6.074;2023-04-29T10:01:32;15.90;99.90
17619;DHT22;8928;51.678;6.074;2023-04-29T10:04:22;15.80;99.90
17619;DHT22;8928;51.678;6.074;2023-04-29T10:07:14;15.90;99.90
17619;DHT22;8928;51.678;6.074;2023-04-29T10:10:03;16.00;99.90
17619;DHT22;8928;51.678;6.074;2023-04-29T10:12:53;16.30;99.90
17619;DHT22;8928;51.678;6.074;2023-04-29T10:15:48;16.70;99.90
17619;DHT22;8928;51.678;6.074;2023-04-29T10:18:40;17.00;99.90
17619;DHT22;8928;51.678;6.074;2023-04-29T10:21:30;17.20;99.90
17619;DHT22;8928;51.678;6.074;2023-04-29T10:24:19;18.10;99.90
17619;DHT22;8928;51.678;6.074;2023-04-29T10:27:09;18.70;99.90
17619;DHT22;8928;51.678;6.074;2023-04-29T10:29:58;18.70;99.90
17619;DHT22;8928;51.678;6.074;2023-04-29T10:32:48;18.40;99.90
17619;DHT22;8928;51.678;6.074;2023-04-29T10:35:36;18.20;99.90
17619;DHT22;8928;51.678;6.074;2023-04-29T10:38:26;18.00;99.90
17619;DHT22;8928;51.678;6.074;2023-04-29T10:41:19;17.70;99.90
17619;DHT22;8928;51.678;6.074;2023-04-29T10:44:06;17.20;99.90
17619;DHT22;8928;51.678;6.074;2023-04-29T10:50:14;17.70;99.90
17619;DHT22;8928;51.678;6.074;2023-04-29T10:53:01;17.60;99.90
17619;DHT22;8928;51.678;6.074;2023-04-29T10:55:53;17.70;99.90
17619;DHT22;8928;51.678;6.074;2023-04-29T10:58:44;18.40;99.90
17619;DHT22;8928;51.678;6.074;2023-04-29T11:01:46;19.50;99.90
17619;DHT22;8928;51.678;6.074;2023-04-29T11:04:33;20.20;99.90
17619;DHT22;8928;51.678;6.074;2023-04-29T11:07:26;19.60;99.90
17619;DHT22;8928;51.678;6.074;2023-04-29T11:10:13;19.10;99.90
17619;DHT22;8928;51.678;6.074;2023-04-29T11:13:22;18.60;99.90
17619;DHT22;8928;51.678;6.074;2023-04-29T11:16:11;18.30;99.90
17619;DHT22;8928;51.678;6.074;2023-04-29T11:19:06;18.30;99.90
17619;DHT22;8928;51.678;6.074;2023-04-29T11:22:25;18.10;99.90
17619;DHT22;8928;51.678;6.074;2023-04-29T11:25:12;18.00;99.90
17619;DHT22;8928;51.678;6.074;2023-04-29T11:27:59;17.90;99.90
17619;DHT22;8928;51.678;6.074;2023-04-29T11:30:48;17.90;99.90
17619;DHT22;8928;51.678;6.074;2023-04-29T11:33:37;18.10;99.90
17619;DHT22;8928;51.678;6.074;2023-04-29T11:36:24;18.10;99.90
17619;DHT22;8928;51.678;6.074;2023-04-29T11:39:12;18.00;99.90
17619;DHT22;8928;51.678;6.074;2023-04-29T11:42:02;17.80;99.90
17619;DHT22;8928;51.678;6.074;2023-04-29T11:44:53;17.40;99.90
17619;DHT22;8928;51.678;6.074;2023-04-29T11:47:42;17.20;99.90
17619;DHT22;8928;51.678;6.074;2023-04-29T11:50:32;17.80;99.90
17619;DHT22;8928;51.678;6.074;2023-04-29T11:53:23;18.40;99.90
17619;DHT22;8928;51.678;6.074;2023-04-29T11:56:10;18.50;99.90
17619;DHT22;8928;51.678;6.074;2023-04-29T11:58:57;18.40;99.90
17619;DHT22;8928;51.678;6.074;2023-04-29T12:01:46;18.20;99.90
17619;DHT22;8928;51.678;6.074;2023-04-29T12:04:33;18.10;99.90
17619;DHT22;8928;51.678;6.074;2023-04-29T12:07:21;17.90;99.90
17619;DHT22;8928;51.678;6.074;2023-04-29T12:10:09;17.70;99.90
17619;DHT22;8928;51.678;6.074;2023-04-29T12:12:56;17.60;99.90
17619;DHT22;8928;51.678;6.074;2023-04-29T12:15:44;17.60;99.90
17619;DHT22;8928;51.678;6.074;2023-04-29T12:18:31;17.90;99.90
17619;DHT22;8928;51.678;6.074;2023-04-29T12:21:18;18.30;99.90
17619;DHT22;8928;51.678;6.074;2023-04-29T12:24:08;18.20;99.90
17619;DHT22;8928;51.678;6.074;2023-04-29T12:26:55;18.10;99.90
17619;DHT22;8928;51.678;6.074;2023-04-29T12:29:45;18.30;99.90
17619;DHT22;8928;51.678;6.074;2023-04-29T12:32:32;18.40;99.90
17619;DHT22;8928;51.678;6.074;2023-04-29T12:35:20;18.60;99.90
17619;DHT22;8928;51.678;6.074;2023-04-29T12:38:07;18.70;99.90
17619;DHT22;8928;51.678;6.074;2023-04-29T12:40:58;18.90;99.90
17619;DHT22;8928;51.678;6.074;2023-04-29T12:43:49;19.10;99.90
17619;DHT22;8928;51.678;6.074;2023-04-29T12:46:37;18.60;99.90
17619;DHT22;8928;51.678;6.074;2023-04-29T12:49:24;18.30;99.90
17619;DHT22;8928;51.678;6.074;2023-04-29T12:52:11;17.70;99.90
17619;DHT22;8928;51.678;6.074;2023-04-29T12:54:58;17.40;99.90
17619;DHT22;8928;51.678;6.074;2023-04-29T12:57:47;17.10;99.90
17619;DHT22;8928;51.678;6.074;2023-04-29T13:00:34;16.90;99.90
17619;DHT22;8928;51.678;6.074;2023-04-29T13:03:22;16.90;99.90
17619;DHT22;8928;51.678;6.074;2023-04-29T13:06:09;17.00;99.90
17619;DHT22;8928;51.678;6.074;2023-04-29T13:08:56;17.20;99.90
17619;DHT22;8928;51.678;6.074;2023-04-29T13:11:43;17.40;99.90
17619;DHT22;8928;51.678;6.074;2023-04-29T13:14:32;17.80;99.90
17619;DHT22;8928;51.678;6.074;2023-04-29T13:17:19;17.90;99.90
17619;DHT22;8928;51.678;6.074;2023-04-29T13:20:07;17.90;99.90
17619;DHT22;8928;51.678;6.074;2023-04-29T13:22:55;17.60;99.90
17619;DHT22;8928;51.678;6.074;2023-04-29T13:25:42;17.10;99.90
17619;DHT22;8928;51.678;6.074;2023-04-29T13:28:30;16.70;99.90
17619;DHT22;8928;51.678;6.074;2023-04-29T13:31:18;16.60;99.90
17619;DHT22;8928;51.678;6.074;2023-04-29T13:34:05;16.50;99.90
17619;DHT22;8928;51.678;6.074;2023-04-29T13:36:52;16.50;99.90
17619;DHT22;8928;51.678;6.074;2023-04-29T13:39:39;16.50;99.90
17619;DHT22;8928;51.678;6.074;2023-04-29T13:42:26;16.80;99.90
17619;DHT22;8928;51.678;6.074;2023-04-29T13:45:13;17.30;99.90
17619;DHT22;8928;51.678;6.074;2023-04-29T13:48:02;17.80;99.90
17619;DHT22;8928;51.678;6.074;2023-04-29T13:50:49;18.30;99.90
17619;DHT22;8928;51.678;6.074;2023-04-29T13:53:36;18.50;99.90
17619;DHT22;8928;51.678;6.074;2023-04-29T13:56:23;18.40;99.90
17619;DHT22;8928;51.678;6.074;2023-04-29T13:59:10;18.20;99.90
17619;DHT22;8928;51.678;6.074;2023-04-29T14:01:58;17.80;99.90
17619;DHT22;8928;51.678;6.074;2023-04-29T14:04:46;17.50;99.90
17619;DHT22;8928;51.678;6.074;2023-04-29T14:07:33;17.40;99.90
17619;DHT22;8928;51.678;6.074;2023-04-29T14:10:20;17.40;99.90
17619;DHT22;8928;51.678;6.074;2023-04-29T14:13:07;17.70;99.90
17619;DHT22;8928;51.678;6.074;2023-04-29T14:15:54;18.00;99.90
17619;DHT22;8928;51.678;6.074;2023-04-29T14:18:42;18.50;99.90
17619;DHT22;8928;51.678;6.074;2023-04-29T14:21:30;19.30;99.90
17619;DHT22;8928;51.678;6.074;2023-04-29T14:24:17;21.40;99.90
17619;DHT22;8928;51.678;6.074;2023-04-29T14:27:05;22.40;99.90
17619;DHT22;8928;51.678;6.074;2023-04-29T14:29:52;21.30;99.90
17619;DHT22;8928;51.678;6.074;2023-04-29T14:32:39;20.10;99.90
17619;DHT22;8928;51.678;6.074;2023-04-29T14:35:26;19.40;99.90
17619;DHT22;8928;51.678;6.074;2023-04-29T14:38:14;19.50;99.90
17619;DHT22;8928;51.678;6.074;2023-04-29T14:41:02;19.40;99.90
17619;DHT22;8928;51.678;6.074;2023-04-29T14:43:49;19.10;99.90
17619;DHT22;8928;51.678;6.074;2023-04-29T14:46:36;18.70;99.90
17619;DHT22;8928;51.678;6.074;2023-04-29T14:49:23;18.60;99.90
17619;DHT22;8928;51.678;6.074;2023-04-29T14:52:11;18.50;99.90
17619;DHT22;8928;51.678;6.074;2023-04-29T14:54:59;18.30;99.90
17619;DHT22;8928;51.678;6.074;2023-04-29T14:57:46;18.30;99.90
17619;DHT22;8928;51.678;6.074;2023-04-29T15:00:33;18.30;99.90
17619;DHT22;8928;51.678;6.074;2023-04-29T15:03:22;18.30;99.90
17619;DHT22;8928;51.678;6.074;2023-04-29T15:06:09;18.90;99.90
17619;DHT22;8928;51.678;6.074;2023-04-29T15:08:56;18.90;99.90
17619;DHT22;8928;51.678;6.074;2023-04-29T15:11:45;19.00;99.90
17619;DHT22;8928;51.678;6.074;2023-04-29T15:14:32;19.00;99.90
17619;DHT22;8928;51.678;6.074;2023-04-29T15:17:19;18.90;99.90
17619;DHT22;8928;51.678;6.074;2023-04-29T15:20:07;18.90;99.90
17619;DHT22;8928;51.678;6.074;2023-04-29T15:22:55;18.90;99.90
17619;DHT22;8928;51.678;6.074;2023-04-29T15:25:42;19.10;99.90
17619;DHT22;8928;51.678;6.074;2023-04-29T15:28:30;19.20;99.90
17619;DHT22;8928;51.678;6.074;2023-04-29T15:31:17;19.60;99.90
17619;DHT22;8928;51.678;6.074;2023-04-29T15:34:04;18.90;99.90
17619;DHT22;8928;51.678;6.074;2023-04-29T15:36:51;18.40;99.90
17619;DHT22;8928;51.678;6.074;2023-04-29T15:39:40;18.00;99.90
17619;DHT22;8928;51.678;6.074;2023-04-29T15:42:27;17.30;99.90
17619;DHT22;8928;51.678;6.074;2023-04-29T15:45:16;17.20;99.90
17619;DHT22;8928;51.678;6.074;2023-04-29T15:48:03;16.90;99.90
17619;DHT22;8928;51.678;6.074;2023-04-29T15:50:50;16.80;99.90
17619;DHT22;8928;51.678;6.074;2023-04-29T15:53:38;16.90;99.90
17619;DHT22;8928;51.678;6.074;2023-04-29T15:56:25;16.90;99.90
17619;DHT22;8928;51.678;6.074;2023-04-29T15:59:12;17.00;99.90
17619;DHT22;8928;51.678;6.074;2023-04-29T16:02:01;17.00;99.90
17619;DHT22;8928;51.678;6.074;2023-04-29T16:04:49;17.10;99.90
17619;DHT22;8928;51.678;6.074;2023-04-29T16:07:36;17.10;99.90
17619;DHT22;8928;51.678;6.074;2023-04-29T16:10:23;17.10;99.90
17619;DHT22;8928;51.678;6.074;2023-04-29T16:13:10;17.10;99.90
17619;DHT22;8928;51.678;6.074;2023-04-29T16:15:57;17.00;99.90
17619;DHT22;8928;51.678;6.074;2023-04-29T16:18:46;16.90;99.90
17619;DHT22;8928;51.678;6.074;2023-04-29T16:21:33;16.80;99.90
17619;DHT22;8928;51.678;6.074;2023-04-29T16:24:20;16.70;99.90
17619;DHT22;8928;51.678;6.074;2023-04-29T16:27:07;16.70;99.90
17619;DHT22;8928;51.678;6.074;2023-04-29T16:29:55;16.50;99.90
17619;DHT22;8928;51.678;6.074;2023-04-29T16:32:42;16.40;99.90
17619;DHT22;8928;51.678;6.074;2023-04-29T16:35:30;16.40;99.90
17619;DHT22;8928;51.678;6.074;2023-04-29T16:38:18;16.30;99.90
17619;DHT22;8928;51.678;6.074;2023-04-29T16:41:05;16.20;99.90
17619;DHT22;8928;51.678;6.074;2023-04-29T16:43:53;16.00;99.90
17619;DHT22;8928;51.678;6.074;2023-04-29T16:46:40;15.90;99.90
17619;DHT22;8928;51.678;6.074;2023-04-29T16:49:27;15.80;99.90
17619;DHT22;8928;51.678;6.074;2023-04-29T16:52:16;15.70;99.90
17619;DHT22;8928;51.678;6.074;2023-04-29T16:55:06;15.60;99.90
17619;DHT22;8928;51.678;6.074;2023-04-29T16:57:53;15.50;99.90
17619;DHT22;8928;51.678;6.074;2023-04-29T17:00:40;15.40;99.90
17619;DHT22;8928;51.678;6.074;2023-04-29T17:03:27;15.30;99.90
17619;DHT22;8928;51.678;6.074;2023-04-29T17:06:15;15.20;99.90
17619;DHT22;8928;51.678;6.074;2023-04-29T17:09:03;15.10;99.90
17619;DHT22;8928;51.678;6.074;2023-04-29T17:11:51;15.20;99.90
17619;DHT22;8928;51.678;6.074;2023-04-29T17:14:38;15.20;99.90
17619;DHT22;8928;51.678;6.074;2023-04-29T17:17:25;15.20;99.90
17619;DHT22;8928;51.678;6.074;2023-04-29T17:20:13;15.30;99.90
17619;DHT22;8928;51.678;6.074;2023-04-29T17:23:00;15.50;99.90
17619;DHT22;8928;51.678;6.074;2023-04-29T17:25:48;16.10;99.90
17619;DHT22;8928;51.678;6.074;2023-04-29T17:28:36;16.40;99.90
17619;DHT22;8928;51.678;6.074;2023-04-29T17:31:23;16.30;99.90
17619;DHT22;8928;51.678;6.074;2023-04-29T17:34:15;16.10;99.90
17619;DHT22;8928;51.678;6.074;2023-04-29T17:37:05;15.90;99.90
17619;DHT22;8928;51.678;6.074;2023-04-29T17:39:52;15.80;99.90
17619;DHT22;8928;51.678;6.074;2023-04-29T17:42:40;16.00;99.90
17619;DHT22;8928;51.678;6.074;2023-04-29T17:45:27;16.40;99.90
17619;DHT22;8928;51.678;6.074;2023-04-29T17:48:14;16.90;99.90
17619;DHT22;8928;51.678;6.074;2023-04-29T17:51:04;17.20;99.90
17619;DHT22;8928;51.678;6.074;2023-04-29T17:53:51;17.60;99.90
17619;DHT22;8928;51.678;6.074;2023-04-29T17:56:39;17.90;99.90
17619;DHT22;8928;51.678;6.074;2023-04-29T17:59:27;18.00;99.90
17619;DHT22;8928;51.678;6.074;2023-04-29T18:02:15;18.00;99.90
17619;DHT22;8928;51.678;6.074;2023-04-29T18:05:02;17.80;99.90
17619;DHT22;8928;51.678;6.074;2023-04-29T18:07:49;17.70;99.90
17619;DHT22;8928;51.678;6.074;2023-04-29T18:10:36;17.20;99.90